Mercedes, Texas
Current Conditions -  °F | °C
As of 10:35 PM on Saturday 22 Nov 2014 (Local Time) from KT65 Reporting Station
Thunderstorm Thunderstorm  
Wind Chill: 64°   Ceiling: 2600
Heat Index: 64°   Visibility: 10mi
Dew Point: 61°   Wind: 5mph
Humidity: 91%   Direction: 330°NNW
Pressure: 29.82"   Gusts: NA
Location:  26.15°N, 97.91°W
Report Text: KT65 230435Z AUTO 33004KT 10SM -VCTSDZ OVC026 18/16 A2982 RMK AO2 LTG DSNT W THRU NE T01750160
Loading
Personal Weather Stations






























Interactive Weather Map New forecast layout! Learn more

10-Day Weather Forecast

Advertisements
Track Severe Weather on mobile